sensor_id;sensor_type;location;lat;lon;timestamp;temperature;humidity
31133;DHT22;17779;50.942;4.026;2023-06-22T00:02:03;20.50;99.90
31133;DHT22;17779;50.942;4.026;2023-06-22T00:04:29;20.60;99.90
31133;DHT22;17779;50.942;4.026;2023-06-22T00:06:58;20.40;99.90
31133;DHT22;17779;50.942;4.026;2023-06-22T00:09:23;20.30;99.90
31133;DHT22;17779;50.942;4.026;2023-06-22T00:11:49;20.40;99.90
31133;DHT22;17779;50.942;4.026;2023-06-22T00:14:18;20.70;99.90
31133;DHT22;17779;50.942;4.026;2023-06-22T00:19:16;20.50;99.90
31133;DHT22;17779;50.942;4.026;2023-06-22T00:21:47;20.40;99.90
31133;DHT22;17779;50.942;4.026;2023-06-22T00:24:21;20.50;99.90
31133;DHT22;17779;50.942;4.026;2023-06-22T00:29:21;20.80;99.90
31133;DHT22;17779;50.942;4.026;2023-06-22T00:31:47;21.00;99.90
31133;DHT22;17779;50.942;4.026;2023-06-22T00:34:16;21.10;99.90
31133;DHT22;17779;50.942;4.026;2023-06-22T00:36:41;21.00;99.90
31133;DHT22;17779;50.942;4.026;2023-06-22T00:39:08;20.90;99.90
31133;DHT22;17779;50.942;4.026;2023-06-22T00:41:33;20.70;99.90
31133;DHT22;17779;50.942;4.026;2023-06-22T00:44:00;20.50;99.90
31133;DHT22;17779;50.942;4.026;2023-06-22T00:46:28;20.40;99.90
31133;DHT22;17779;50.942;4.026;2023-06-22T00:51:22;20.60;99.90
31133;DHT22;17779;50.942;4.026;2023-06-22T00:53:52;20.60;99.90
31133;DHT22;17779;50.942;4.026;2023-06-22T00:56:20;20.50;99.90
31133;DHT22;17779;50.942;4.026;2023-06-22T00:58:50;20.50;99.90
31133;DHT22;17779;50.942;4.026;2023-06-22T01:01:18;20.30;99.90
31133;DHT22;17779;50.942;4.026;2023-06-22T01:03:48;20.10;99.90
31133;DHT22;17779;50.942;4.026;2023-06-22T01:08:57;20.00;99.90
31133;DHT22;17779;50.942;4.026;2023-06-22T01:11:36;19.90;99.90
31133;DHT22;17779;50.942;4.026;2023-06-22T01:14:28;20.00;99.90
31133;DHT22;17779;50.942;4.026;2023-06-22T01:16:50;20.00;99.90
31133;DHT22;17779;50.942;4.026;2023-06-22T01:19:29;20.00;99.90
31133;DHT22;17779;50.942;4.026;2023-06-22T01:21:57;20.10;99.90
31133;DHT22;17779;50.942;4.026;2023-06-22T01:24:37;20.40;99.90
31133;DHT22;17779;50.942;4.026;2023-06-22T01:27:25;20.50;99.90
31133;DHT22;17779;50.942;4.026;2023-06-22T01:29:55;20.60;99.90
31133;DHT22;17779;50.942;4.026;2023-06-22T01:32:32;20.70;99.90
31133;DHT22;17779;50.942;4.026;2023-06-22T01:34:59;20.60;99.90
31133;DHT22;17779;50.942;4.026;2023-06-22T01:37:25;20.50;99.90
31133;DHT22;17779;50.942;4.026;2023-06-22T01:39:51;20.40;99.90
31133;DHT22;17779;50.942;4.026;2023-06-22T01:42:19;20.40;99.90
31133;DHT22;17779;50.942;4.026;2023-06-22T01:44:45;20.30;99.90
31133;DHT22;17779;50.942;4.026;2023-06-22T01:47:11;20.40;99.90
31133;DHT22;17779;50.942;4.026;2023-06-22T01:49:40;20.40;99.90
31133;DHT22;17779;50.942;4.026;2023-06-22T01:52:05;20.60;99.90
31133;DHT22;17779;50.942;4.026;2023-06-22T01:54:31;20.50;99.90
31133;DHT22;17779;50.942;4.026;2023-06-22T01:56:57;20.40;99.90
31133;DHT22;17779;50.942;4.026;2023-06-22T01:59:29;20.40;99.90
31133;DHT22;17779;50.942;4.026;2023-06-22T02:01:59;20.40;99.90
31133;DHT22;17779;50.942;4.026;2023-06-22T02:04:44;20.10;99.90
31133;DHT22;17779;50.942;4.026;2023-06-22T02:07:15;19.70;99.90
31133;DHT22;17779;50.942;4.026;2023-06-22T02:09:43;19.50;99.90
31133;DHT22;17779;50.942;4.026;2023-06-22T02:12:10;19.30;99.90
31133;DHT22;17779;50.942;4.026;2023-06-22T02:14:37;19.10;99.90
31133;DHT22;17779;50.942;4.026;2023-06-22T02:17:03;19.10;99.90
31133;DHT22;17779;50.942;4.026;2023-06-22T02:19:35;19.00;99.90
31133;DHT22;17779;50.942;4.026;2023-06-22T02:22:01;18.90;99.90
31133;DHT22;17779;50.942;4.026;2023-06-22T02:24:26;18.90;99.90
31133;DHT22;17779;50.942;4.026;2023-06-22T02:26:52;18.90;99.90
31133;DHT22;17779;50.942;4.026;2023-06-22T02:29:18;19.20;99.90
31133;DHT22;17779;50.942;4.026;2023-06-22T02:31:43;19.30;99.90
31133;DHT22;17779;50.942;4.026;2023-06-22T02:34:09;19.40;99.90
31133;DHT22;17779;50.942;4.026;2023-06-22T02:36:35;19.50;99.90
31133;DHT22;17779;50.942;4.026;2023-06-22T02:39:00;19.30;99.90
31133;DHT22;17779;50.942;4.026;2023-06-22T02:41:27;19.00;99.90
31133;DHT22;17779;50.942;4.026;2023-06-22T02:43:52;18.80;99.90
31133;DHT22;17779;50.942;4.026;2023-06-22T02:46:18;18.90;99.90
31133;DHT22;17779;50.942;4.026;2023-06-22T02:48:44;19.00;99.90
31133;DHT22;17779;50.942;4.026;2023-06-22T02:51:09;18.90;99.90
31133;DHT22;17779;50.942;4.026;2023-06-22T02:53:35;18.70;99.90
31133;DHT22;17779;50.942;4.026;2023-06-22T02:56:04;18.60;99.90
31133;DHT22;17779;50.942;4.026;2023-06-22T02:58:33;18.60;99.90
31133;DHT22;17779;50.942;4.026;2023-06-22T03:01:04;18.50;99.90
31133;DHT22;17779;50.942;4.026;2023-06-22T03:03:30;18.40;99.90
31133;DHT22;17779;50.942;4.026;2023-06-22T03:05:55;18.40;99.90
31133;DHT22;17779;50.942;4.026;2023-06-22T03:08:21;18.30;99.90
31133;DHT22;17779;50.942;4.026;2023-06-22T03:10:47;18.20;99.90
31133;DHT22;17779;50.942;4.026;2023-06-22T03:13:12;18.20;99.90
31133;DHT22;17779;50.942;4.026;2023-06-22T03:15:38;18.50;99.90
31133;DHT22;17779;50.942;4.026;2023-06-22T03:18:03;18.40;99.90
31133;DHT22;17779;50.942;4.026;2023-06-22T03:20:29;18.60;99.90
31133;DHT22;17779;50.942;4.026;2023-06-22T03:22:58;18.70;99.90
31133;DHT22;17779;50.942;4.026;2023-06-22T03:25:24;18.70;99.90
31133;DHT22;17779;50.942;4.026;2023-06-22T03:27:50;18.90;99.90
31133;DHT22;17779;50.942;4.026;2023-06-22T03:30:15;18.90;99.90
31133;DHT22;17779;50.942;4.026;2023-06-22T03:32:41;18.60;99.90
31133;DHT22;17779;50.942;4.026;2023-06-22T03:35:08;18.40;99.90
31133;DHT22;17779;50.942;4.026;2023-06-22T03:37:34;18.50;99.90
31133;DHT22;17779;50.942;4.026;2023-06-22T03:39:59;18.50;99.90
31133;DHT22;17779;50.942;4.026;2023-06-22T03:42:25;18.40;99.90
31133;DHT22;17779;50.942;4.026;2023-06-22T03:44:51;18.30;99.90
31133;DHT22;17779;50.942;4.026;2023-06-22T03:47:17;18.20;99.90
31133;DHT22;17779;50.942;4.026;2023-06-22T03:49:43;18.30;99.90
31133;DHT22;17779;50.942;4.026;2023-06-22T03:52:09;18.30;99.90
31133;DHT22;17779;50.942;4.026;2023-06-22T03:54:36;18.30;99.90
31133;DHT22;17779;50.942;4.026;2023-06-22T03:57:01;18.30;99.90
31133;DHT22;17779;50.942;4.026;2023-06-22T03:59:27;18.40;99.90
31133;DHT22;17779;50.942;4.026;2023-06-22T04:01:53;18.60;99.90
31133;DHT22;17779;50.942;4.026;2023-06-22T04:04:18;18.70;99.90
31133;DHT22;17779;50.942;4.026;2023-06-22T04:06:44;18.70;99.90
31133;DHT22;17779;50.942;4.026;2023-06-22T04:09:09;19.00;99.90
31133;DHT22;17779;50.942;4.026;2023-06-22T04:11:35;19.00;99.90
31133;DHT22;17779;50.942;4.026;2023-06-22T04:14:01;19.10;99.90
31133;DHT22;17779;50.942;4.026;2023-06-22T04:16:26;19.20;99.90
31133;DHT22;17779;50.942;4.026;2023-06-22T04:18:52;19.30;99.90
31133;DHT22;17779;50.942;4.026;2023-06-22T04:21:18;19.40;99.90
31133;DHT22;17779;50.942;4.026;2023-06-22T04:23:45;19.30;99.90
31133;DHT22;17779;50.942;4.026;2023-06-22T04:26:14;19.30;99.90
31133;DHT22;17779;50.942;4.026;2023-06-22T04:28:40;19.40;99.90
31133;DHT22;17779;50.942;4.026;2023-06-22T04:31:05;19.50;99.90
31133;DHT22;17779;50.942;4.026;2023-06-22T04:33:31;19.70;99.90
31133;DHT22;17779;50.942;4.026;2023-06-22T04:35:59;19.60;99.90
31133;DHT22;17779;50.942;4.026;2023-06-22T04:38:29;19.50;99.90
31133;DHT22;17779;50.942;4.026;2023-06-22T04:40:58;19.40;99.90
31133;DHT22;17779;50.942;4.026;2023-06-22T04:43:24;19.30;99.90
31133;DHT22;17779;50.942;4.026;2023-06-22T04:45:49;19.30;99.90
31133;DHT22;17779;50.942;4.026;2023-06-22T04:48:17;19.30;99.90
31133;DHT22;17779;50.942;4.026;2023-06-22T04:50:43;19.50;99.90
31133;DHT22;17779;50.942;4.026;2023-06-22T04:53:09;19.60;99.90
31133;DHT22;17779;50.942;4.026;2023-06-22T04:55:39;19.90;99.90
31133;DHT22;17779;50.942;4.026;2023-06-22T04:58:06;20.10;99.90
31133;DHT22;17779;50.942;4.026;2023-06-22T05:00:32;20.40;99.90
31133;DHT22;17779;50.942;4.026;2023-06-22T05:03:01;20.50;99.90
31133;DHT22;17779;50.942;4.026;2023-06-22T05:05:28;20.60;99.90
31133;DHT22;17779;50.942;4.026;2023-06-22T05:07:56;20.70;99.90
31133;DHT22;17779;50.942;4.026;2023-06-22T05:10:25;20.90;99.90
31133;DHT22;17779;50.942;4.026;2023-06-22T05:12:51;21.00;99.90
31133;DHT22;17779;50.942;4.026;2023-06-22T05:15:16;20.90;99.90
31133;DHT22;17779;50.942;4.026;2023-06-22T05:17:44;20.90;99.90
31133;DHT22;17779;50.942;4.026;2023-06-22T05:20:12;21.00;99.90
31133;DHT22;17779;50.942;4.026;2023-06-22T05:22:38;21.00;99.90
31133;DHT22;17779;50.942;4.026;2023-06-22T05:25:08;21.00;99.90
31133;DHT22;17779;50.942;4.026;2023-06-22T05:27:33;20.90;99.90
31133;DHT22;17779;50.942;4.026;2023-06-22T05:29:59;20.60;99.90
31133;DHT22;17779;50.942;4.026;2023-06-22T05:32:25;20.60;99.90
31133;DHT22;17779;50.942;4.026;2023-06-22T05:34:52;20.80;99.90
31133;DHT22;17779;50.942;4.026;2023-06-22T05:37:18;20.60;99.90
31133;DHT22;17779;50.942;4.026;2023-06-22T05:39:44;20.80;99.90
31133;DHT22;17779;50.942;4.026;2023-06-22T05:42:09;20.90;99.90
31133;DHT22;17779;50.942;4.026;2023-06-22T05:44:35;20.80;99.90
31133;DHT22;17779;50.942;4.026;2023-06-22T05:47:00;20.70;99.90
31133;DHT22;17779;50.942;4.026;2023-06-22T05:49:28;20.70;99.90
31133;DHT22;17779;50.942;4.026;2023-06-22T05:51:58;20.90;99.90
31133;DHT22;17779;50.942;4.026;2023-06-22T05:54:23;21.10;99.90
31133;DHT22;17779;50.942;4.026;2023-06-22T05:56:49;21.10;99.90
31133;DHT22;17779;50.942;4.026;2023-06-22T05:59:14;21.10;99.90
31133;DHT22;17779;50.942;4.026;2023-06-22T06:01:40;21.20;99.90
31133;DHT22;17779;50.942;4.026;2023-06-22T06:04:06;21.50;99.90
31133;DHT22;17779;50.942;4.026;2023-06-22T06:06:34;21.50;99.90
31133;DHT22;17779;50.942;4.026;2023-06-22T06:09:03;21.60;99.90
31133;DHT22;17779;50.942;4.026;2023-06-22T06:11:29;21.80;99.90
31133;DHT22;17779;50.942;4.026;2023-06-22T06:13:54;21.60;99.90
31133;DHT22;17779;50.942;4.026;2023-06-22T06:16:20;21.40;99.90
31133;DHT22;17779;50.942;4.026;2023-06-22T06:18:46;21.60;99.90
31133;DHT22;17779;50.942;4.026;2023-06-22T06:21:12;21.70;99.90
31133;DHT22;17779;50.942;4.026;2023-06-22T06:23:38;21.70;99.90
31133;DHT22;17779;50.942;4.026;2023-06-22T06:26:03;21.90;99.90
31133;DHT22;17779;50.942;4.026;2023-06-22T06:28:32;22.00;99.90
31133;DHT22;17779;50.942;4.026;2023-06-22T06:30:58;22.00;99.90
31133;DHT22;17779;50.942;4.026;2023-06-22T06:33:23;22.00;99.90
31133;DHT22;17779;50.942;4.026;2023-06-22T06:35:49;22.20;99.90
31133;DHT22;17779;50.942;4.026;2023-06-22T06:38:15;22.20;99.90
31133;DHT22;17779;50.942;4.026;2023-06-22T06:40:40;22.30;99.90
31133;DHT22;17779;50.942;4.026;2023-06-22T06:43:06;22.60;99.90
31133;DHT22;17779;50.942;4.026;2023-06-22T06:45:32;22.60;99.90
31133;DHT22;17779;50.942;4.026;2023-06-22T06:47:59;22.40;99.90
31133;DHT22;17779;50.942;4.026;2023-06-22T06:50:25;22.20;99.90
31133;DHT22;17779;50.942;4.026;2023-06-22T06:52:51;22.20;99.90
31133;DHT22;17779;50.942;4.026;2023-06-22T06:55:17;22.10;99.90
31133;DHT22;17779;50.942;4.026;2023-06-22T06:57:44;22.40;99.90
31133;DHT22;17779;50.942;4.026;2023-06-22T07:00:13;22.30;99.90
31133;DHT22;17779;50.942;4.026;2023-06-22T07:02:41;22.30;99.90
31133;DHT22;17779;50.942;4.026;2023-06-22T07:05:07;22.40;99.90
31133;DHT22;17779;50.942;4.026;2023-06-22T07:07:33;22.60;99.90
31133;DHT22;17779;50.942;4.026;2023-06-22T07:09:59;22.70;99.90
31133;DHT22;17779;50.942;4.026;2023-06-22T07:12:24;22.60;99.90
31133;DHT22;17779;50.942;4.026;2023-06-22T07:14:51;22.50;99.90
31133;DHT22;17779;50.942;4.026;2023-06-22T07:17:16;22.70;99.90
31133;DHT22;17779;50.942;4.026;2023-06-22T07:19:42;22.70;99.90
31133;DHT22;17779;50.942;4.026;2023-06-22T07:22:08;22.70;99.90
31133;DHT22;17779;50.942;4.026;2023-06-22T07:24:34;22.70;99.90
31133;DHT22;17779;50.942;4.026;2023-06-22T07:26:59;22.70;99.90
31133;DHT22;17779;50.942;4.026;2023-06-22T07:29:25;22.60;99.90
31133;DHT22;17779;50.942;4.026;2023-06-22T07:31:52;22.80;99.90
31133;DHT22;17779;50.942;4.026;2023-06-22T07:34:18;22.80;99.90
31133;DHT22;17779;50.942;4.026;2023-06-22T07:36:44;22.80;99.90
31133;DHT22;17779;50.942;4.026;2023-06-22T07:39:10;22.60;99.90
31133;DHT22;17779;50.942;4.026;2023-06-22T07:41:38;22.80;99.90
31133;DHT22;17779;50.942;4.026;2023-06-22T07:44:04;22.80;99.90
31133;DHT22;17779;50.942;4.026;2023-06-22T07:46:29;23.00;99.90
31133;DHT22;17779;50.942;4.026;2023-06-22T07:48:56;22.90;99.90
31133;DHT22;17779;50.942;4.026;2023-06-22T07:51:22;23.10;99.90
31133;DHT22;17779;50.942;4.026;2023-06-22T07:53:49;23.20;99.90
31133;DHT22;17779;50.942;4.026;2023-06-22T07:56:14;23.00;99.90
31133;DHT22;17779;50.942;4.026;2023-06-22T07:58:44;23.00;99.90
31133;DHT22;17779;50.942;4.026;2023-06-22T08:01:10;23.10;99.90
31133;DHT22;17779;50.942;4.026;2023-06-22T08:03:36;23.20;99.90
31133;DHT22;17779;50.942;4.026;2023-06-22T08:06:02;23.10;99.90
31133;DHT22;17779;50.942;4.026;2023-06-22T08:08:28;23.30;99.90
31133;DHT22;17779;50.942;4.026;2023-06-22T08:10:54;23.30;99.90
31133;DHT22;17779;50.942;4.026;2023-06-22T08:13:20;23.30;99.90
31133;DHT22;17779;50.942;4.026;2023-06-22T08:15:46;23.60;99.90
31133;DHT22;17779;50.942;4.026;2023-06-22T08:18:11;23.80;99.90
31133;DHT22;17779;50.942;4.026;2023-06-22T08:20:37;23.50;99.90
31133;DHT22;17779;50.942;4.026;2023-06-22T08:23:03;23.60;99.90
31133;DHT22;17779;50.942;4.026;2023-06-22T08:25:35;23.70;99.90
31133;DHT22;17779;50.942;4.026;2023-06-22T08:28:01;23.60;99.90
31133;DHT22;17779;50.942;4.026;2023-06-22T08:30:27;23.70;99.90
31133;DHT22;17779;50.942;4.026;2023-06-22T08:32:53;23.80;99.90
31133;DHT22;17779;50.942;4.026;2023-06-22T08:35:21;23.40;99.90
31133;DHT22;17779;50.942;4.026;2023-06-22T08:37:47;23.40;99.90
31133;DHT22;17779;50.942;4.026;2023-06-22T08:40:18;23.50;99.90
31133;DHT22;17779;50.942;4.026;2023-06-22T08:42:45;23.50;99.90
31133;DHT22;17779;50.942;4.026;2023-06-22T08:45:11;23.50;99.90
31133;DHT22;17779;50.942;4.026;2023-06-22T08:47:36;23.50;99.90
31133;DHT22;17779;50.942;4.026;2023-06-22T08:50:02;23.50;99.90
31133;DHT22;17779;50.942;4.026;2023-06-22T08:52:31;23.60;99.90
31133;DHT22;17779;50.942;4.026;2023-06-22T08:54:56;23.60;99.90
31133;DHT22;17779;50.942;4.026;2023-06-22T08:57:23;23.60;99.90
31133;DHT22;17779;50.942;4.026;2023-06-22T08:59:49;23.50;99.90
31133;DHT22;17779;50.942;4.026;2023-06-22T09:02:17;23.60;99.90
31133;DHT22;17779;50.942;4.026;2023-06-22T09:04:43;23.30;99.90
31133;DHT22;17779;50.942;4.026;2023-06-22T09:07:09;23.10;99.90
31133;DHT22;17779;50.942;4.026;2023-06-22T09:09:34;22.90;99.90
31133;DHT22;17779;50.942;4.026;2023-06-22T09:12:00;22.80;99.90
31133;DHT22;17779;50.942;4.026;2023-06-22T09:14:25;22.60;99.90
31133;DHT22;17779;50.942;4.026;2023-06-22T09:16:51;22.50;99.90
31133;DHT22;17779;50.942;4.026;2023-06-22T09:19:17;22.40;99.90
31133;DHT22;17779;50.942;4.026;2023-06-22T09:21:42;22.30;99.90
31133;DHT22;17779;50.942;4.026;2023-06-22T09:24:08;22.30;99.90
31133;DHT22;17779;50.942;4.026;2023-06-22T09:26:34;22.40;99.90
31133;DHT22;17779;50.942;4.026;2023-06-22T09:28:59;22.30;99.90
31133;DHT22;17779;50.942;4.026;2023-06-22T09:31:25;22.20;99.90
31133;DHT22;17779;50.942;4.026;2023-06-22T09:33:54;22.10;99.90
31133;DHT22;17779;50.942;4.026;2023-06-22T09:36:21;22.20;99.90
31133;DHT22;17779;50.942;4.026;2023-06-22T09:38:47;22.30;99.90
31133;DHT22;17779;50.942;4.026;2023-06-22T09:41:13;22.40;99.90
31133;DHT22;17779;50.942;4.026;2023-06-22T09:43:38;22.30;99.90
31133;DHT22;17779;50.942;4.026;2023-06-22T09:46:04;22.40;99.90
31133;DHT22;17779;50.942;4.026;2023-06-22T09:48:29;22.20;99.90
31133;DHT22;17779;50.942;4.026;2023-06-22T09:50:56;22.30;99.90
31133;DHT22;17779;50.942;4.026;2023-06-22T09:53:22;22.60;99.90
31133;DHT22;17779;50.942;4.026;2023-06-22T09:55:47;22.40;99.90
31133;DHT22;17779;50.942;4.026;2023-06-22T09:58:13;22.10;99.90
31133;DHT22;17779;50.942;4.026;2023-06-22T10:00:39;22.10;99.90
31133;DHT22;17779;50.942;4.026;2023-06-22T10:03:07;22.40;99.90
31133;DHT22;17779;50.942;4.026;2023-06-22T10:05:32;22.20;99.90
31133;DHT22;17779;50.942;4.026;2023-06-22T10:07:58;22.00;99.90
31133;DHT22;17779;50.942;4.026;2023-06-22T10:10:24;21.80;99.90
31133;DHT22;17779;50.942;4.026;2023-06-22T10:12:57;21.90;99.90
31133;DHT22;17779;50.942;4.026;2023-06-22T10:15:28;22.20;99.90
31133;DHT22;17779;50.942;4.026;2023-06-22T10:17:56;22.30;99.90
31133;DHT22;17779;50.942;4.026;2023-06-22T10:20:23;22.10;99.90
31133;DHT22;17779;50.942;4.026;2023-06-22T10:22:50;21.80;99.90
31133;DHT22;17779;50.942;4.026;2023-06-22T10:25:16;21.70;99.90
31133;DHT22;17779;50.942;4.026;2023-06-22T10:27:41;21.80;99.90
31133;DHT22;17779;50.942;4.026;2023-06-22T10:30:08;21.90;99.90
31133;DHT22;17779;50.942;4.026;2023-06-22T10:32:34;21.90;99.90
31133;DHT22;17779;50.942;4.026;2023-06-22T10:35:00;21.90;99.90
31133;DHT22;17779;50.942;4.026;2023-06-22T10:37:25;21.80;99.90
31133;DHT22;17779;50.942;4.026;2023-06-22T10:39:51;21.70;99.90
31133;DHT22;17779;50.942;4.026;2023-06-22T10:42:17;21.30;99.90
31133;DHT22;17779;50.942;4.026;2023-06-22T10:44:42;20.90;99.90
31133;DHT22;17779;50.942;4.026;2023-06-22T10:47:11;20.60;99.90
31133;DHT22;17779;50.942;4.026;2023-06-22T10:49:38;20.50;99.90
31133;DHT22;17779;50.942;4.026;2023-06-22T10:52:05;20.30;99.90
31133;DHT22;17779;50.942;4.026;2023-06-22T10:54:32;20.20;99.90
31133;DHT22;17779;50.942;4.026;2023-06-22T10:56:59;20.10;99.90
31133;DHT22;17779;50.942;4.026;2023-06-22T10:59:25;20.00;99.90
31133;DHT22;17779;50.942;4.026;2023-06-22T11:01:52;19.90;99.90
31133;DHT22;17779;50.942;4.026;2023-06-22T11:04:18;20.00;99.90
31133;DHT22;17779;50.942;4.026;2023-06-22T11:06:44;20.00;99.90
31133;DHT22;17779;50.942;4.026;2023-06-22T11:09:10;20.10;99.90
31133;DHT22;17779;50.942;4.026;2023-06-22T11:11:35;20.20;99.90
31133;DHT22;17779;50.942;4.026;2023-06-22T11:14:01;20.30;99.90
31133;DHT22;17779;50.942;4.026;2023-06-22T11:16:27;20.40;99.90
31133;DHT22;17779;50.942;4.026;2023-06-22T11:18:52;20.40;99.90
31133;DHT22;17779;50.942;4.026;2023-06-22T11:21:18;20.30;99.90
31133;DHT22;17779;50.942;4.026;2023-06-22T11:23:45;20.50;99.90
31133;DHT22;17779;50.942;4.026;2023-06-22T11:26:11;20.60;99.90
31133;DHT22;17779;50.942;4.026;2023-06-22T11:28:37;20.50;99.90
31133;DHT22;17779;50.942;4.026;2023-06-22T11:31:03;20.60;99.90
31133;DHT22;17779;50.942;4.026;2023-06-22T11:33:28;20.70;99.90
31133;DHT22;17779;50.942;4.026;2023-06-22T11:35:54;20.70;99.90
31133;DHT22;17779;50.942;4.026;2023-06-22T11:38:22;20.50;99.90
31133;DHT22;17779;50.942;4.026;2023-06-22T11:40:48;20.50;99.90
31133;DHT22;17779;50.942;4.026;2023-06-22T11:43:14;20.70;99.90
31133;DHT22;17779;50.942;4.026;2023-06-22T11:45:40;20.70;99.90
31133;DHT22;17779;50.942;4.026;2023-06-22T11:48:07;20.70;99.90
31133;DHT22;17779;50.942;4.026;2023-06-22T11:50:33;20.50;99.90
31133;DHT22;17779;50.942;4.026;2023-06-22T11:53:02;20.50;99.90
31133;DHT22;17779;50.942;4.026;2023-06-22T11:55:29;20.30;99.90
31133;DHT22;17779;50.942;4.026;2023-06-22T11:57:55;20.30;99.90
31133;DHT22;17779;50.942;4.026;2023-06-22T12:00:21;20.40;99.90
31133;DHT22;17779;50.942;4.026;2023-06-22T12:02:49;20.40;99.90
31133;DHT22;17779;50.942;4.026;2023-06-22T12:05:17;20.50;99.90
31133;DHT22;17779;50.942;4.026;2023-06-22T12:07:43;20.60;99.90
31133;DHT22;17779;50.942;4.026;2023-06-22T12:10:09;20.50;99.90
31133;DHT22;17779;50.942;4.026;2023-06-22T12:12:35;20.60;99.90
31133;DHT22;17779;50.942;4.026;2023-06-22T12:15:01;20.60;99.90
31133;DHT22;17779;50.942;4.026;2023-06-22T12:17:29;20.80;99.90
31133;DHT22;17779;50.942;4.026;2023-06-22T12:19:55;20.90;99.90
31133;DHT22;17779;50.942;4.026;2023-06-22T12:22:20;20.90;99.90
31133;DHT22;17779;50.942;4.026;2023-06-22T12:24:46;20.80;99.90
31133;DHT22;17779;50.942;4.026;2023-06-22T12:27:12;20.60;99.90
31133;DHT22;17779;50.942;4.026;2023-06-22T12:29:38;20.30;99.90
31133;DHT22;17779;50.942;4.026;2023-06-22T12:32:03;20.20;99.90
31133;DHT22;17779;50.942;4.026;2023-06-22T12:34:29;20.10;99.90
31133;DHT22;17779;50.942;4.026;2023-06-22T12:36:55;19.90;99.90
31133;DHT22;17779;50.942;4.026;2023-06-22T12:39:20;19.80;99.90
31133;DHT22;17779;50.942;4.026;2023-06-22T12:41:46;19.80;99.90
31133;DHT22;17779;50.942;4.026;2023-06-22T12:44:11;19.60;99.90
31133;DHT22;17779;50.942;4.026;2023-06-22T12:46:37;19.70;99.90
31133;DHT22;17779;50.942;4.026;2023-06-22T12:49:03;19.80;99.90
31133;DHT22;17779;50.942;4.026;2023-06-22T12:51:29;19.70;99.90
31133;DHT22;17779;50.942;4.026;2023-06-22T12:53:55;19.60;99.90
31133;DHT22;17779;50.942;4.026;2023-06-22T12:56:21;19.40;99.90
31133;DHT22;17779;50.942;4.026;2023-06-22T12:58:47;19.40;99.90
31133;DHT22;17779;50.942;4.026;2023-06-22T13:01:12;19.30;99.90
31133;DHT22;17779;50.942;4.026;2023-06-22T13:03:38;19.30;99.90
31133;DHT22;17779;50.942;4.026;2023-06-22T13:06:04;19.30;99.90
31133;DHT22;17779;50.942;4.026;2023-06-22T13:08:30;19.30;99.90
31133;DHT22;17779;50.942;4.026;2023-06-22T13:10:55;19.30;99.90
31133;DHT22;17779;50.942;4.026;2023-06-22T13:13:25;19.40;99.90
31133;DHT22;17779;50.942;4.026;2023-06-22T13:15:52;19.40;99.90
31133;DHT22;17779;50.942;4.026;2023-06-22T13:18:18;19.50;99.90
31133;DHT22;17779;50.942;4.026;2023-06-22T13:20:43;19.60;99.90
31133;DHT22;17779;50.942;4.026;2023-06-22T13:23:10;19.60;99.90
31133;DHT22;17779;50.942;4.026;2023-06-22T13:25:36;19.50;99.90
31133;DHT22;17779;50.942;4.026;2023-06-22T13:28:02;19.50;99.90
31133;DHT22;17779;50.942;4.026;2023-06-22T13:30:27;19.50;99.90
31133;DHT22;17779;50.942;4.026;2023-06-22T13:32:53;19.50;99.90
31133;DHT22;17779;50.942;4.026;2023-06-22T13:35:19;19.40;99.90
31133;DHT22;17779;50.942;4.026;2023-06-22T13:37:44;19.30;99.90
31133;DHT22;17779;50.942;4.026;2023-06-22T13:40:10;19.30;99.90
31133;DHT22;17779;50.942;4.026;2023-06-22T13:42:36;19.30;99.90
31133;DHT22;17779;50.942;4.026;2023-06-22T13:45:01;19.30;99.90
31133;DHT22;17779;50.942;4.026;2023-06-22T13:47:29;19.30;99.90
31133;DHT22;17779;50.942;4.026;2023-06-22T13:49:55;19.30;99.90
31133;DHT22;17779;50.942;4.026;2023-06-22T13:52:20;19.30;99.90
31133;DHT22;17779;50.942;4.026;2023-06-22T13:54:46;19.50;99.90
31133;DHT22;17779;50.942;4.026;2023-06-22T13:57:11;19.50;99.90
31133;DHT22;17779;50.942;4.026;2023-06-22T13:59:37;19.60;99.90
31133;DHT22;17779;50.942;4.026;2023-06-22T14:02:03;19.60;99.90
31133;DHT22;17779;50.942;4.026;2023-06-22T14:04:28;19.70;99.90
31133;DHT22;17779;50.942;4.026;2023-06-22T14:06:54;19.70;99.90
31133;DHT22;17779;50.942;4.026;2023-06-22T14:09:21;19.60;99.90
31133;DHT22;17779;50.942;4.026;2023-06-22T14:11:47;19.60;99.90
31133;DHT22;17779;50.942;4.026;2023-06-22T14:14:12;19.50;99.90
31133;DHT22;17779;50.942;4.026;2023-06-22T14:16:38;19.40;99.90
31133;DHT22;17779;50.942;4.026;2023-06-22T14:19:03;19.40;99.90
31133;DHT22;17779;50.942;4.026;2023-06-22T14:21:30;19.40;99.90
31133;DHT22;17779;50.942;4.026;2023-06-22T14:23:55;19.40;99.90
31133;DHT22;17779;50.942;4.026;2023-06-22T14:26:22;19.40;99.90
31133;DHT22;17779;50.942;4.026;2023-06-22T14:28:48;19.50;99.90
31133;DHT22;17779;50.942;4.026;2023-06-22T14:31:15;19.50;99.90
31133;DHT22;17779;50.942;4.026;2023-06-22T14:33:48;19.60;99.90
31133;DHT22;17779;50.942;4.026;2023-06-22T14:36:15;19.60;99.90
31133;DHT22;17779;50.942;4.026;2023-06-22T14:38:42;19.70;99.90
31133;DHT22;17779;50.942;4.026;2023-06-22T14:41:08;19.70;99.90
31133;DHT22;17779;50.942;4.026;2023-06-22T14:43:34;19.80;99.90
31133;DHT22;17779;50.942;4.026;2023-06-22T14:45:59;19.80;99.90
31133;DHT22;17779;50.942;4.026;2023-06-22T14:48:25;19.70;99.90
31133;DHT22;17779;50.942;4.026;2023-06-22T14:50:53;19.70;99.90
31133;DHT22;17779;50.942;4.026;2023-06-22T14:53:19;19.70;99.90
31133;DHT22;17779;50.942;4.026;2023-06-22T14:55:46;19.80;99.90
31133;DHT22;17779;50.942;4.026;2023-06-22T14:58:11;19.80;99.90
31133;DHT22;17779;50.942;4.026;2023-06-22T15:00:37;19.90;99.90
31133;DHT22;17779;50.942;4.026;2023-06-22T15:03:05;19.90;99.90
31133;DHT22;17779;50.942;4.026;2023-06-22T15:05:32;19.90;99.90
31133;DHT22;17779;50.942;4.026;2023-06-22T15:07:58;19.90;99.90
31133;DHT22;17779;50.942;4.026;2023-06-22T15:10:24;19.90;99.90
31133;DHT22;17779;50.942;4.026;2023-06-22T15:12:50;20.10;99.90
31133;DHT22;17779;50.942;4.026;2023-06-22T15:15:15;20.10;99.90
31133;DHT22;17779;50.942;4.026;2023-06-22T15:17:41;20.20;99.90
31133;DHT22;17779;50.942;4.026;2023-06-22T15:20:08;20.10;99.90
31133;DHT22;17779;50.942;4.026;2023-06-22T15:25:03;20.00;99.90
31133;DHT22;17779;50.942;4.026;2023-06-22T15:27:31;20.10;99.90
31133;DHT22;17779;50.942;4.026;2023-06-22T15:29:59;20.10;99.90
31133;DHT22;17779;50.942;4.026;2023-06-22T15:32:25;20.20;99.90
31133;DHT22;17779;50.942;4.026;2023-06-22T15:34:50;20.30;99.90
31133;DHT22;17779;50.942;4.026;2023-06-22T15:37:19;20.40;99.90
31133;DHT22;17779;50.942;4.026;2023-06-22T15:39:44;20.30;99.90